createdAt,value
2017-09-18T00:01:02.724Z,9.06
2017-09-18T00:03:33.840Z,8.97
2017-09-18T00:06:06.297Z,8.94
2017-09-18T00:08:38.975Z,9.02
2017-09-18T00:11:10.903Z,9.02
2017-09-18T00:13:41.488Z,8.90
2017-09-18T00:16:12.034Z,8.97
2017-09-18T00:18:42.666Z,8.97
2017-09-18T00:21:13.390Z,8.86
2017-09-18T00:23:44.766Z,8.81
2017-09-18T00:26:16.339Z,8.76
2017-09-18T00:28:46.775Z,8.81
2017-09-18T00:31:18.101Z,8.87
2017-09-18T00:33:49.031Z,8.91
2017-09-18T00:36:19.591Z,8.97
2017-09-18T00:38:50.834Z,9.02
2017-09-18T00:41:22.107Z,8.95
2017-09-18T00:43:52.609Z,8.95
2017-09-18T00:46:23.817Z,8.93
2017-09-18T00:48:54.701Z,8.80
2017-09-18T00:51:28.570Z,8.89
2017-09-18T00:54:03.566Z,8.82
2017-09-18T00:56:34.241Z,8.72
2017-09-18T00:59:05.470Z,8.75
2017-09-18T01:01:37.761Z,8.58
2017-09-18T01:04:08.666Z,8.46
2017-09-18T01:06:39.377Z,8.43
2017-09-18T01:09:12.317Z,8.52
2017-09-18T01:11:46.987Z,8.54
2017-09-18T01:14:18.351Z,8.65
2017-09-18T01:16:49.351Z,8.70
2017-09-18T01:19:20.212Z,8.85
2017-09-18T01:21:51.292Z,8.83
2017-09-18T01:24:22.866Z,8.88
2017-09-18T01:26:53.904Z,8.91
2017-09-18T01:29:24.337Z,8.99
2017-09-18T01:31:55.660Z,8.99
2017-09-18T01:34:27.800Z,9.04
2017-09-18T01:36:58.391Z,9.04
2017-09-18T01:39:32.895Z,9.03
2017-09-18T01:42:45.645Z,8.89
2017-09-18T01:45:17.787Z,8.92
2017-09-18T01:47:49.535Z,8.67
2017-09-18T01:50:20.730Z,8.62
2017-09-18T01:52:52.509Z,8.75
2017-09-18T01:55:27.666Z,8.53
2017-09-18T01:58:07.013Z,8.59
2017-09-18T02:00:46.931Z,8.57
2017-09-18T02:03:20.173Z,8.65
2017-09-18T02:05:51.703Z,8.70
2017-09-18T02:08:23.064Z,8.75
2017-09-18T02:10:55.785Z,8.62
2017-09-18T02:13:27.903Z,8.52
2017-09-18T02:15:59.198Z,8.58
2017-09-18T02:18:30.689Z,8.61
2017-09-18T02:21:06.689Z,8.66
2017-09-18T02:23:51.253Z,8.55
2017-09-18T02:26:22.518Z,8.62
2017-09-18T02:28:54.135Z,8.63
2017-09-18T02:31:24.977Z,8.58
2017-09-18T02:33:55.953Z,8.59
2017-09-18T02:36:28.092Z,8.71
2017-09-18T02:38:59.898Z,8.83
2017-09-18T02:41:30.968Z,8.80
2017-09-18T02:44:03.613Z,8.77
2017-09-18T02:46:35.207Z,8.88
2017-09-18T02:49:06.618Z,8.97
2017-09-18T02:51:38.243Z,8.98
2017-09-18T02:54:10.392Z,8.94
2017-09-18T02:56:41.801Z,8.66
2017-09-18T02:59:13.303Z,8.58
2017-09-18T03:01:45.770Z,8.55
2017-09-18T03:04:17.956Z,8.66
2017-09-18T03:06:49.733Z,8.58
2017-09-18T03:09:21.638Z,8.52
2017-09-18T03:11:53.845Z,8.38
2017-09-18T03:14:27.068Z,8.34
2017-09-18T03:16:58.930Z,8.51
2017-09-18T03:19:30.588Z,8.60
2017-09-18T03:22:02.956Z,8.55
2017-09-18T03:24:34.981Z,8.42
2017-09-18T03:27:07.189Z,8.41
2017-09-18T03:29:38.985Z,8.41
2017-09-18T03:32:11.673Z,8.45
2017-09-18T03:34:43.415Z,8.54
2017-09-18T03:37:15.505Z,8.61
2017-09-18T03:39:46.700Z,8.49
2017-09-18T03:42:21.055Z,8.38
2017-09-18T03:44:52.899Z,8.55
2017-09-18T03:47:25.731Z,8.48
2017-09-18T03:49:58.211Z,8.42
2017-09-18T03:52:32.336Z,8.38
2017-09-18T03:55:04.453Z,8.52
2017-09-18T03:57:37.932Z,8.49
2017-09-18T04:00:13.861Z,8.52
2017-09-18T04:02:48.794Z,8.41
2017-09-18T04:05:25.381Z,8.50
2017-09-18T04:07:56.526Z,8.44
2017-09-18T04:10:32.839Z,8.39
2017-09-18T04:13:06.601Z,8.32
2017-09-18T04:15:38.648Z,8.39
2017-09-18T04:18:18.458Z,8.45
2017-09-18T04:20:50.833Z,8.51
2017-09-18T04:23:24.415Z,8.45
2017-09-18T04:25:58.424Z,8.52
2017-09-18T04:28:30.488Z,8.46
2017-09-18T04:31:04.692Z,8.50
2017-09-18T04:33:37.678Z,8.51
2017-09-18T04:36:12.035Z,8.46
2017-09-18T04:38:44.537Z,8.38
2017-09-18T04:41:18.557Z,8.31
2017-09-18T04:43:50.854Z,8.41
2017-09-18T04:46:22.352Z,8.39
2017-09-18T04:48:56.015Z,8.15
2017-09-18T04:51:27.798Z,8.32
2017-09-18T04:54:00.022Z,8.41
2017-09-18T04:56:32.408Z,8.48
2017-09-18T04:59:04.937Z,8.56
2017-09-18T05:01:37.483Z,8.49
2017-09-18T05:04:09.074Z,8.48
2017-09-18T05:06:40.624Z,8.51
2017-09-18T05:09:12.552Z,8.46
2017-09-18T05:11:45.054Z,8.52
2017-09-18T05:14:18.250Z,8.56
2017-09-18T05:16:49.499Z,8.64
2017-09-18T05:19:20.561Z,8.66
2017-09-18T05:21:51.425Z,8.73
2017-09-18T05:24:46.998Z,8.62
2017-09-18T05:27:18.162Z,8.52
2017-09-18T05:29:48.723Z,8.58
2017-09-18T05:32:21.771Z,8.71
2017-09-18T05:34:52.631Z,8.80
2017-09-18T05:37:24.274Z,8.93
2017-09-18T05:40:05.826Z,8.69
2017-09-18T05:42:40.140Z,8.87
2017-09-18T05:45:20.291Z,9.08
2017-09-18T05:48:00.206Z,9.27
2017-09-18T05:50:36.828Z,9.39
2017-09-18T05:53:08.552Z,9.47
2017-09-18T05:55:40.028Z,9.73
2017-09-18T05:58:11.186Z,9.88
2017-09-18T06:00:42.276Z,9.91
2017-09-18T06:03:14.463Z,9.86
2017-09-18T06:05:45.230Z,9.99
2017-09-18T06:08:30.694Z,10.12
2017-09-18T06:14:10.180Z,10.44
2017-09-18T06:16:43.153Z,10.63
2017-09-18T06:19:14.877Z,10.85
2017-09-18T06:21:46.620Z,10.98
2017-09-18T06:24:18.064Z,10.69
2017-09-18T06:26:49.583Z,11.13
2017-09-18T06:29:38.781Z,11.44
2017-09-18T06:32:25.379Z,11.45
2017-09-18T06:35:01.465Z,11.78
2017-09-18T06:37:42.722Z,11.64
2017-09-18T06:40:27.018Z,12.00
2017-09-18T06:43:30.184Z,12.39
2017-09-18T06:46:03.365Z,12.74
2017-09-18T06:48:34.891Z,12.91
2017-09-18T06:51:05.906Z,13.13
2017-09-18T06:53:37.049Z,13.42
2017-09-18T06:56:09.343Z,13.70
2017-09-18T06:58:41.114Z,13.96
2017-09-18T07:01:16.901Z,14.17
2017-09-18T07:03:51.150Z,14.44
2017-09-18T07:06:25.092Z,14.59
2017-09-18T07:08:57.183Z,14.44
2017-09-18T07:11:30.772Z,14.53
2017-09-18T07:14:03.020Z,14.66
2017-09-18T07:16:35.309Z,14.82
2017-09-18T07:19:07.549Z,14.98
2017-09-18T07:21:39.801Z,14.91
2017-09-18T07:24:12.397Z,14.98
2017-09-18T07:26:43.897Z,14.66
2017-09-18T07:29:15.264Z,14.98
2017-09-18T07:31:46.407Z,15.17
2017-09-18T07:34:18.293Z,15.51
2017-09-18T07:36:50.357Z,15.61
2017-09-18T07:39:22.108Z,15.45
2017-09-18T07:41:54.212Z,15.64
2017-09-18T07:44:25.625Z,16.01
2017-09-18T07:46:58.427Z,15.98
2017-09-18T07:49:28.996Z,15.98
2017-09-18T07:52:02.073Z,16.16
2017-09-18T07:54:33.384Z,16.05
2017-09-18T07:57:04.805Z,15.96
2017-09-18T07:59:38.195Z,16.10
2017-09-18T08:02:12.454Z,16.37
2017-09-18T08:04:46.775Z,16.16
2017-09-18T08:07:29.202Z,15.99
2017-09-18T08:10:02.736Z,16.13
2017-09-18T08:12:38.105Z,15.68
2017-09-18T08:15:10.215Z,15.85
2017-09-18T08:17:42.575Z,16.11
2017-09-18T08:20:14.741Z,16.20
2017-09-18T08:22:51.480Z,16.18
2017-09-18T08:25:25.502Z,15.93
2017-09-18T08:27:58.648Z,16.22
2017-09-18T08:30:31.849Z,16.38
2017-09-18T08:33:10.017Z,16.40
2017-09-18T08:35:42.446Z,16.32
2017-09-18T08:38:16.299Z,16.41
2017-09-18T08:40:51.891Z,16.42
2017-09-18T08:43:27.096Z,16.47
2017-09-18T08:46:00.395Z,16.57
2017-09-18T08:48:44.251Z,16.90
2017-09-18T08:51:18.687Z,16.99
2017-09-18T08:56:31.565Z,16.97
2017-09-18T08:59:05.317Z,16.91
2017-09-18T09:01:44.493Z,16.77
2017-09-18T09:04:16.441Z,16.83
2017-09-18T09:06:48.736Z,16.63
2017-09-18T09:09:31.504Z,16.49
2017-09-18T09:12:03.306Z,16.80
2017-09-18T09:14:34.982Z,17.13
2017-09-18T09:17:16.186Z,17.12
2017-09-18T09:19:50.262Z,17.59
2017-09-18T09:22:22.108Z,17.50
2017-09-18T09:24:53.698Z,17.68
2017-09-18T09:27:28.009Z,17.80
2017-09-18T09:30:01.024Z,17.89
2017-09-18T09:32:46.771Z,17.80
2017-09-18T09:35:30.608Z,17.37
2017-09-18T09:41:01.777Z,17.28
2017-09-18T09:43:47.109Z,17.48
2017-09-18T09:46:22.706Z,17.68
2017-09-18T09:49:25.789Z,18.13
2017-09-18T09:52:00.964Z,18.23
2017-09-18T09:54:32.731Z,18.50
2017-09-18T09:57:04.609Z,18.34
2017-09-18T09:59:38.920Z,18.45
2017-09-18T10:02:11.292Z,18.22
2017-09-18T10:07:44.985Z,17.80
2017-09-18T10:10:27.245Z,17.98
2017-09-18T10:13:09.213Z,18.12
2017-09-18T10:18:23.173Z,17.82
2017-09-18T10:20:59.951Z,17.97
2017-09-18T10:23:41.981Z,18.17
2017-09-18T10:26:13.255Z,18.30
2017-09-18T10:28:53.603Z,18.22
2017-09-18T10:31:29.267Z,18.13
2017-09-18T10:34:16.631Z,18.63
2017-09-18T10:36:56.422Z,18.72
2017-09-18T10:39:44.324Z,18.42
2017-09-18T10:42:36.285Z,18.22
2017-09-18T10:48:22.226Z,18.69
2017-09-18T10:51:01.220Z,18.71
2017-09-18T10:53:44.187Z,18.28
2017-09-18T10:56:31.810Z,18.40
2017-09-18T10:59:49.076Z,18.62
2017-09-18T11:05:35.620Z,18.86
2017-09-18T11:08:20.393Z,19.02
2017-09-18T11:11:11.066Z,18.66
2017-09-18T11:16:54.619Z,18.63
2017-09-18T11:32:51.192Z,19.72
2017-09-18T11:35:34.752Z,19.81
2017-09-18T11:38:13.396Z,19.70
2017-09-18T11:45:01.383Z,19.97
2017-09-18T11:54:15.087Z,19.98
2017-09-18T11:57:07.159Z,20.02
2017-09-18T11:59:59.069Z,20.18
2017-09-18T12:02:40.740Z,20.04
2017-09-18T12:08:18.479Z,19.85
2017-09-18T12:14:08.614Z,20.64
2017-09-18T12:20:07.048Z,20.08
2017-09-18T12:26:40.158Z,20.65
2017-09-18T12:29:41.290Z,20.88
2017-09-18T12:32:18.638Z,20.67
2017-09-18T12:35:23.809Z,20.81
2017-09-18T12:38:22.628Z,20.64
2017-09-18T12:41:30.508Z,20.99
2017-09-18T12:44:15.934Z,21.12
2017-09-18T12:47:08.516Z,20.89
2017-09-18T12:49:44.735Z,20.98
2017-09-18T12:52:25.103Z,20.72
2017-09-18T12:58:07.077Z,20.96
2017-09-18T13:00:47.302Z,20.62
2017-09-18T13:03:22.829Z,20.38
2017-09-18T13:09:05.733Z,20.10
2017-09-18T13:15:47.649Z,19.91
2017-09-18T13:21:47.187Z,19.86
2017-09-18T13:27:48.088Z,20.25
2017-09-18T13:30:53.330Z,20.31
2017-09-18T13:33:36.831Z,20.10
2017-09-18T13:39:19.327Z,20.24
2017-09-18T13:42:05.439Z,20.16
2017-09-18T13:47:53.773Z,20.26
2017-09-18T13:50:42.268Z,20.50
2017-09-18T13:53:46.538Z,19.87
2017-09-18T13:56:41.682Z,19.50
2017-09-18T13:59:27.757Z,19.57
2017-09-18T14:02:17.042Z,19.48
2017-09-18T14:08:18.535Z,19.22
2017-09-18T14:11:16.393Z,18.95
2017-09-18T14:16:50.621Z,18.84
2017-09-18T14:23:24.151Z,19.13
2017-09-18T14:31:22.555Z,18.63
2017-09-18T14:37:33.851Z,19.23
2017-09-18T14:43:52.793Z,19.46
2017-09-18T14:46:50.165Z,19.64
2017-09-18T14:49:33.171Z,19.94
2017-09-18T14:52:13.720Z,20.10
2017-09-18T14:54:52.045Z,19.98
2017-09-18T15:00:27.417Z,19.73
2017-09-18T15:07:29.258Z,19.47
2017-09-18T15:10:19.073Z,18.99
2017-09-18T15:13:12.655Z,18.98
2017-09-18T15:15:57.667Z,19.34
2017-09-18T15:18:51.177Z,19.35
2017-09-18T15:24:40.257Z,19.37
2017-09-18T15:27:15.472Z,19.70
2017-09-18T15:29:57.621Z,19.81
2017-09-18T15:38:22.229Z,18.49
2017-09-18T15:41:26.719Z,18.71
2017-09-18T15:44:08.117Z,18.72
2017-09-18T15:49:41.684Z,18.86
2017-09-18T15:55:12.878Z,18.91
2017-09-18T15:57:46.241Z,18.91
2017-09-18T16:00:39.206Z,18.56
2017-09-18T16:03:27.605Z,18.45
2017-09-18T16:06:04.165Z,18.54
2017-09-18T16:08:48.522Z,18.60
2017-09-18T16:11:23.390Z,18.27
2017-09-18T16:14:05.473Z,18.40
2017-09-18T16:16:52.989Z,18.29
2017-09-18T16:19:29.509Z,18.17
2017-09-18T16:24:57.184Z,17.78
2017-09-18T16:30:31.135Z,17.71
2017-09-18T16:42:16.375Z,17.54
2017-09-18T16:50:52.830Z,16.97
2017-09-18T16:59:32.216Z,16.68
2017-09-18T17:02:06.234Z,16.53
2017-09-18T17:04:40.300Z,16.38
2017-09-18T17:07:22.340Z,16.39
2017-09-18T17:10:20.938Z,16.33
2017-09-18T17:13:01.498Z,16.32
2017-09-18T17:15:44.189Z,16.26
2017-09-18T17:18:18.184Z,16.23
2017-09-18T17:23:39.160Z,16.13
2017-09-18T17:26:13.758Z,16.10
2017-09-18T17:28:48.837Z,16.14
2017-09-18T17:31:22.194Z,16.15
2017-09-18T17:34:02.934Z,16.17
2017-09-18T17:36:44.598Z,16.12
2017-09-18T17:39:19.542Z,16.09
2017-09-18T17:42:02.881Z,15.99
2017-09-18T17:44:49.234Z,15.99
2017-09-18T17:50:44.434Z,15.99
2017-09-18T17:57:01.177Z,15.88
2017-09-18T17:59:40.242Z,15.80
2017-09-18T18:23:18.128Z,16.46
2017-09-18T18:25:59.475Z,16.47
2017-09-18T18:28:49.067Z,16.56
2017-09-18T18:41:18.387Z,16.55
2017-09-18T18:43:52.385Z,16.26
2017-09-18T18:46:53.940Z,16.40
2017-09-18T18:49:36.860Z,16.37
2017-09-18T18:56:05.133Z,16.66
2017-09-18T18:58:41.274Z,15.93
2017-09-18T19:01:13.608Z,16.14
2017-09-18T19:03:45.085Z,15.56
2017-09-18T19:06:19.284Z,15.34
2017-09-18T19:08:54.395Z,15.63
2017-09-18T19:11:28.873Z,15.38
2017-09-18T19:14:03.039Z,15.69
2017-09-18T19:16:39.425Z,15.37
2017-09-18T19:19:12.475Z,15.39
2017-09-18T19:21:45.637Z,15.34
2017-09-18T19:24:17.715Z,15.43
2017-09-18T19:26:56.312Z,15.61
2017-09-18T19:29:27.853Z,15.39
2017-09-18T19:32:00.769Z,15.00
2017-09-18T19:34:38.185Z,15.12
2017-09-18T19:37:12.767Z,15.12
2017-09-18T19:39:45.379Z,15.22
2017-09-18T19:42:19.989Z,15.15
2017-09-18T19:44:53.179Z,15.25
2017-09-18T19:47:24.783Z,15.15
2017-09-18T19:49:56.169Z,15.06
2017-09-18T19:52:28.584Z,14.97
2017-09-18T19:55:00.609Z,14.98
2017-09-18T19:57:32.436Z,15.09
2017-09-18T20:00:05.216Z,14.81
2017-09-18T20:02:39.517Z,15.04
2017-09-18T20:05:12.962Z,15.24
2017-09-18T20:07:44.896Z,15.29
2017-09-18T20:10:16.141Z,15.28
2017-09-18T20:12:49.003Z,15.27
2017-09-18T20:15:21.052Z,15.12
2017-09-18T20:17:54.942Z,15.04
2017-09-18T20:20:28.500Z,15.01
2017-09-18T20:23:01.804Z,14.99
2017-09-18T20:25:35.464Z,14.97
2017-09-18T20:28:13.322Z,14.72
2017-09-18T20:30:46.627Z,14.77
2017-09-18T20:33:19.631Z,14.70
2017-09-18T20:35:51.858Z,14.66
2017-09-18T20:38:24.488Z,14.64
2017-09-18T20:40:58.343Z,14.64
2017-09-18T20:43:32.097Z,14.38
2017-09-18T20:46:03.694Z,14.40
2017-09-18T20:48:36.680Z,14.44
2017-09-18T20:51:08.192Z,14.49
2017-09-18T20:53:39.723Z,14.52
2017-09-18T20:56:13.032Z,14.53
2017-09-18T20:58:45.286Z,14.52
2017-09-18T21:01:18.296Z,14.61
2017-09-18T21:03:50.271Z,14.68
2017-09-18T21:06:22.467Z,14.69
2017-09-18T21:08:55.316Z,14.74
2017-09-18T21:11:27.824Z,14.73
2017-09-18T21:13:59.254Z,14.75
2017-09-18T21:16:31.548Z,14.76
2017-09-18T21:19:03.275Z,14.78
2017-09-18T21:21:35.776Z,14.80
2017-09-18T21:24:07.531Z,14.80
2017-09-18T21:26:39.463Z,14.75
2017-09-18T21:29:11.076Z,14.71
2017-09-18T21:31:43.459Z,14.67
2017-09-18T21:34:17.462Z,14.69
2017-09-18T21:36:52.319Z,14.67
2017-09-18T21:39:23.930Z,14.66
2017-09-18T21:41:57.219Z,14.69
2017-09-18T21:44:28.774Z,14.68
2017-09-18T21:47:01.077Z,14.67
2017-09-18T21:49:36.080Z,14.69
2017-09-18T21:52:08.148Z,14.66
2017-09-18T21:54:41.214Z,14.72
2017-09-18T21:57:13.322Z,14.73
2017-09-18T21:59:45.539Z,14.71
2017-09-18T22:02:17.912Z,14.68
2017-09-18T22:04:49.643Z,14.68
2017-09-18T22:07:22.916Z,14.66
2017-09-18T22:09:56.848Z,14.43
2017-09-18T22:12:30.052Z,14.59
2017-09-18T22:15:02.519Z,14.62
2017-09-18T22:17:35.441Z,14.71
2017-09-18T22:20:09.286Z,14.75
2017-09-18T22:22:41.778Z,14.70
2017-09-18T22:25:14.082Z,14.76
2017-09-18T22:27:45.453Z,14.78
2017-09-18T22:30:17.651Z,14.80
2017-09-18T22:32:50.506Z,14.85
2017-09-18T22:35:22.413Z,14.82
2017-09-18T22:37:54.886Z,14.84
2017-09-18T22:40:26.715Z,14.88
2017-09-18T22:45:25.849Z,14.89
2017-09-18T22:47:57.510Z,14.87
2017-09-18T22:50:29.077Z,14.82
2017-09-18T22:53:06.456Z,14.72
2017-09-18T22:55:39.809Z,14.63
2017-09-18T22:58:11.602Z,14.51
2017-09-18T23:00:43.137Z,14.37
2017-09-18T23:03:18.819Z,14.27
2017-09-18T23:05:51.443Z,14.32
2017-09-18T23:08:24.762Z,14.28
2017-09-18T23:10:59.644Z,14.33
2017-09-18T23:13:33.622Z,14.36
2017-09-18T23:16:05.736Z,14.32
2017-09-18T23:18:37.109Z,14.24
2017-09-18T23:21:09.011Z,14.39
2017-09-18T23:23:40.238Z,14.48
2017-09-18T23:26:12.348Z,14.53
2017-09-18T23:28:45.537Z,14.51
2017-09-18T23:31:19.956Z,14.48
2017-09-18T23:33:51.959Z,14.51
2017-09-18T23:36:23.228Z,14.52
2017-09-18T23:38:55.530Z,14.43
2017-09-18T23:41:28.255Z,14.46
2017-09-18T23:44:00.295Z,14.49
2017-09-18T23:46:33.929Z,14.55
2017-09-18T23:49:07.396Z,14.54
2017-09-18T23:51:39.341Z,14.62
2017-09-18T23:54:12.113Z,14.60
2017-09-18T23:56:53.605Z,14.52
2017-09-18T23:59:30.469Z,14.40
